createdAt,value
2023-03-20T00:03:58.965Z,19.37
2023-03-20T00:09:07.409Z,14.83
2023-03-20T00:14:15.061Z,11.37
2023-03-20T00:19:27.989Z,11.33
2023-03-20T00:24:31.716Z,23.07
2023-03-20T00:29:34.767Z,20.80
2023-03-20T00:34:37.792Z,13.20
2023-03-20T00:39:41.667Z,12.23
2023-03-20T00:44:55.971Z,13.33
2023-03-20T00:49:59.384Z,12.20
2023-03-20T00:55:02.350Z,10.23
2023-03-20T01:00:25.713Z,14.03
2023-03-20T01:05:29.126Z,10.93
2023-03-20T01:10:33.327Z,9.87
2023-03-20T01:15:37.255Z,10.20
2023-03-20T01:20:40.819Z,14.00
2023-03-20T01:25:43.863Z,12.53
2023-03-20T01:30:48.330Z,11.73
2023-03-20T01:35:51.757Z,11.73
2023-03-20T01:41:14.219Z,12.13
2023-03-20T01:46:30.785Z,11.83
2023-03-20T01:51:36.035Z,8.50
2023-03-20T01:56:48.277Z,8.67
2023-03-20T02:01:51.694Z,11.60
2023-03-20T02:06:54.758Z,9.57
2023-03-20T02:11:59.306Z,8.43
2023-03-20T02:17:09.495Z,18.37
2023-03-20T02:22:49.004Z,10.43
2023-03-20T02:28:33.405Z,9.20
2023-03-20T02:34:04.356Z,9.30
2023-03-20T02:39:28.322Z,7.47
2023-03-20T02:44:40.286Z,10.27
2023-03-20T02:50:00.016Z,7.97
2023-03-20T02:55:29.204Z,9.00
2023-03-20T03:00:41.179Z,9.40
2023-03-20T03:05:54.267Z,8.03
2023-03-20T03:11:08.779Z,8.00
2023-03-20T03:16:19.802Z,36.33
2023-03-20T03:21:23.820Z,14.55
2023-03-20T03:26:32.477Z,10.10
2023-03-20T03:31:38.255Z,8.27
2023-03-20T03:37:02.808Z,10.10
2023-03-20T03:42:17.334Z,11.20
2023-03-20T03:47:25.843Z,12.87
2023-03-20T03:52:31.613Z,11.70
2023-03-20T03:57:42.367Z,13.43
2023-03-20T04:02:51.307Z,16.70
2023-03-20T04:07:58.200Z,17.63
2023-03-20T04:13:02.446Z,17.20
2023-03-20T04:18:06.096Z,12.73
2023-03-20T04:23:09.022Z,12.53
2023-03-20T04:28:12.008Z,9.87
2023-03-20T04:33:15.198Z,9.73
2023-03-20T04:38:19.673Z,10.37
2023-03-20T04:43:22.771Z,11.50
2023-03-20T04:48:27.904Z,10.43
2023-03-20T04:53:30.942Z,11.70
2023-03-20T04:58:36.069Z,14.07
2023-03-20T05:03:39.668Z,13.33
2023-03-20T05:08:42.702Z,12.27
2023-03-20T05:13:46.107Z,8.57
2023-03-20T05:18:49.357Z,11.93
2023-03-20T05:23:52.168Z,26.60
2023-03-20T05:28:55.228Z,19.43
2023-03-20T05:33:58.509Z,20.60
2023-03-20T05:39:01.590Z,16.70
2023-03-20T05:44:04.905Z,14.00
2023-03-20T05:49:08.788Z,13.73
2023-03-20T05:54:11.764Z,13.70
2023-03-20T05:59:14.944Z,12.10
2023-03-20T06:04:17.895Z,11.00
2023-03-20T06:09:20.927Z,12.57
2023-03-20T06:14:24.101Z,11.10
2023-03-20T06:19:27.181Z,25.60
2023-03-20T06:24:30.504Z,27.73
2023-03-20T06:29:33.495Z,20.17
2023-03-20T06:34:37.649Z,12.77
2023-03-20T06:39:41.680Z,9.50
2023-03-20T06:44:44.555Z,10.63
2023-03-20T06:49:47.622Z,18.37
2023-03-20T06:54:52.290Z,53.60
2023-03-20T06:59:55.341Z,17.63
2023-03-20T07:04:58.154Z,18.93
2023-03-20T07:10:01.648Z,21.17
2023-03-20T07:15:05.886Z,14.93
2023-03-20T07:20:10.157Z,11.87
2023-03-20T07:25:13.590Z,11.43
2023-03-20T07:30:18.300Z,12.50
2023-03-20T07:35:22.571Z,14.47
2023-03-20T07:40:26.206Z,18.63
2023-03-20T07:45:29.432Z,25.03
2023-03-20T07:50:32.457Z,29.33
2023-03-20T07:55:35.930Z,25.23
2023-03-20T08:00:39.159Z,20.17
2023-03-20T08:05:42.071Z,19.00
2023-03-20T08:10:45.395Z,16.70
2023-03-20T08:15:48.349Z,24.98
2023-03-20T08:20:51.450Z,29.98
2023-03-20T08:25:54.943Z,23.17
2023-03-20T08:30:58.033Z,32.85
2023-03-20T08:36:01.042Z,23.92
2023-03-20T08:41:04.396Z,23.33
2023-03-20T08:46:08.356Z,22.55
2023-03-20T08:51:11.606Z,23.40
2023-03-20T08:56:14.602Z,15.52
2023-03-20T09:01:17.612Z,12.52
2023-03-20T09:06:20.869Z,7.28
2023-03-20T09:11:24.532Z,7.40
2023-03-20T09:16:28.277Z,10.27
2023-03-20T09:21:31.299Z,6.82
2023-03-20T09:26:34.321Z,8.45
2023-03-20T09:31:37.541Z,11.70
2023-03-20T09:36:41.940Z,5.68
2023-03-20T09:41:57.392Z,7.53
2023-03-20T09:47:23.974Z,9.38
2023-03-20T09:52:34.691Z,6.03
2023-03-20T09:57:45.511Z,6.93
2023-03-20T10:03:01.931Z,6.60
2023-03-20T10:08:11.293Z,6.07
2023-03-20T10:13:52.932Z,5.38
2023-03-20T10:19:23.547Z,6.43
2023-03-20T10:24:42.449Z,8.57
2023-03-20T10:30:45.340Z,8.93
2023-03-20T10:36:10.513Z,7.13
2023-03-20T10:41:21.749Z,9.35
2023-03-20T10:46:31.813Z,7.68
2023-03-20T10:51:58.495Z,7.05
2023-03-20T10:57:06.269Z,8.13
2023-03-20T11:02:15.057Z,4.78
2023-03-20T11:07:35.086Z,5.77
2023-03-20T11:12:45.372Z,7.45
2023-03-20T11:18:08.291Z,9.77
2023-03-20T11:23:20.639Z,7.10
2023-03-20T11:28:41.308Z,6.32
2023-03-20T11:34:07.515Z,6.65
2023-03-20T11:39:16.861Z,7.38
2023-03-20T11:44:36.636Z,7.03
2023-03-20T11:49:57.772Z,9.48
2023-03-20T11:55:06.860Z,7.97
2023-03-20T12:00:24.508Z,9.23
2023-03-20T12:05:36.763Z,8.13
2023-03-20T12:10:44.507Z,6.70
2023-03-20T12:15:56.274Z,8.00
2023-03-20T12:21:15.227Z,8.52
2023-03-20T12:26:27.143Z,9.68
2023-03-20T12:31:58.431Z,9.10
2023-03-20T12:37:02.380Z,8.90
2023-03-20T12:42:16.854Z,10.50
2023-03-20T12:48:16.977Z,9.68
2023-03-20T12:53:38.073Z,10.48
2023-03-20T12:58:52.887Z,11.27
2023-03-20T13:04:19.011Z,9.02
2023-03-20T13:09:37.535Z,11.32
2023-03-20T13:15:29.040Z,10.07
2023-03-20T13:21:04.125Z,10.00
2023-03-20T13:26:34.701Z,17.10
2023-03-20T13:32:10.379Z,10.35
2023-03-20T13:37:33.340Z,9.60
2023-03-20T13:42:59.353Z,7.13
2023-03-20T13:48:22.007Z,9.90
2023-03-20T13:53:43.256Z,7.60
2023-03-20T13:59:03.865Z,9.20
2023-03-20T14:04:16.226Z,7.50
2023-03-20T14:09:28.109Z,9.43
2023-03-20T14:14:50.880Z,10.57
2023-03-20T14:19:55.184Z,15.73
2023-03-20T14:25:09.676Z,10.40
2023-03-20T14:30:30.998Z,9.07
2023-03-20T14:35:43.821Z,9.43
2023-03-20T14:40:54.214Z,11.15
2023-03-20T14:46:42.177Z,10.43
2023-03-20T14:51:48.292Z,8.23
2023-03-20T14:56:53.177Z,10.13
2023-03-20T15:02:03.291Z,11.35
2023-03-20T15:12:44.218Z,7.72
2023-03-20T15:17:50.005Z,6.68
2023-03-20T15:22:57.726Z,6.55
2023-03-20T15:28:01.632Z,8.75
2023-03-20T15:33:05.422Z,6.88
2023-03-20T15:38:09.985Z,6.63
2023-03-20T15:43:24.295Z,15.02
2023-03-20T15:48:27.477Z,12.73
2023-03-20T15:53:36.165Z,9.35
2023-03-20T15:58:42.128Z,7.03
2023-03-20T16:03:45.355Z,9.07
2023-03-20T16:09:06.087Z,8.60
2023-03-20T16:14:23.692Z,8.48
2023-03-20T16:19:29.111Z,20.13
2023-03-20T16:24:38.473Z,17.38
2023-03-20T16:29:50.949Z,10.68
2023-03-20T16:34:59.678Z,7.38
2023-03-20T16:40:28.567Z,7.28
2023-03-20T16:45:44.860Z,9.68
2023-03-20T16:51:00.224Z,5.40
2023-03-20T16:56:10.472Z,7.22
2023-03-20T17:01:23.280Z,4.22
2023-03-20T17:06:43.497Z,5.40
2023-03-20T17:11:57.962Z,7.13
2023-03-20T17:17:01.128Z,5.95
2023-03-20T17:22:16.294Z,4.45
2023-03-20T17:27:21.226Z,5.80
2023-03-20T17:32:24.882Z,6.27
2023-03-20T17:37:30.285Z,7.67
2023-03-20T17:42:33.647Z,5.60
2023-03-20T17:47:38.312Z,6.27
2023-03-20T17:52:41.502Z,5.73
2023-03-20T17:57:44.700Z,9.50
2023-03-20T18:02:48.075Z,7.57
2023-03-20T18:07:51.224Z,6.03
2023-03-20T18:12:54.226Z,8.27
2023-03-20T18:17:57.453Z,8.07
2023-03-20T18:23:00.834Z,7.57
2023-03-20T18:28:08.071Z,6.43
2023-03-20T18:33:14.378Z,7.40
2023-03-20T18:38:17.857Z,7.40
2023-03-20T18:43:22.900Z,9.43
2023-03-20T18:48:25.894Z,6.70
2023-03-20T18:53:30.278Z,7.23
2023-03-20T18:58:33.330Z,8.80
2023-03-20T19:03:39.475Z,5.90
2023-03-20T19:08:44.892Z,9.53
2023-03-20T19:13:52.358Z,7.60
2023-03-20T19:19:01.558Z,7.80
2023-03-20T19:24:06.630Z,8.67
2023-03-20T19:29:13.891Z,11.37
2023-03-20T19:34:51.935Z,10.83
2023-03-20T19:39:40.200Z,6.83
2023-03-20T19:44:43.016Z,7.67
2023-03-20T19:49:46.924Z,5.93
2023-03-20T19:55:01.789Z,6.80
2023-03-20T20:05:37.605Z,7.80
2023-03-20T20:10:50.730Z,9.23
2023-03-20T20:15:55.393Z,9.37
2023-03-20T20:21:59.926Z,10.33
2023-03-20T20:26:22.133Z,7.77
2023-03-20T20:31:31.790Z,7.47
2023-03-20T20:37:21.028Z,10.07
2023-03-20T20:41:59.202Z,10.03
2023-03-20T20:47:02.291Z,15.70
2023-03-20T20:52:05.634Z,11.30
2023-03-20T20:57:14.330Z,10.03
2023-03-20T21:02:17.774Z,7.53
2023-03-20T21:07:21.387Z,9.63
2023-03-20T21:12:36.442Z,8.23
2023-03-20T21:17:59.465Z,10.23
2023-03-20T21:23:03.362Z,10.87
2023-03-20T21:28:06.776Z,12.67
2023-03-20T21:33:09.916Z,8.50
2023-03-20T21:43:36.429Z,10.33
2023-03-20T22:00:05.361Z,9.20
2023-03-20T22:05:28.800Z,10.03
2023-03-20T22:11:03.456Z,8.20
2023-03-20T22:32:35.022Z,7.27
2023-03-20T22:38:00.403Z,7.13
2023-03-20T22:42:57.452Z,7.13
2023-03-20T22:47:59.525Z,7.80
2023-03-20T22:53:02.502Z,7.50
2023-03-20T22:58:07.875Z,10.00
2023-03-20T23:03:25.768Z,8.33
2023-03-20T23:08:42.445Z,11.10
2023-03-20T23:13:51.643Z,8.20
2023-03-20T23:18:54.741Z,7.67
2023-03-20T23:23:57.773Z,8.37
2023-03-20T23:29:03.445Z,10.33
2023-03-20T23:34:06.613Z,7.73
2023-03-20T23:39:13.169Z,10.40
2023-03-20T23:44:16.149Z,8.00
2023-03-20T23:49:19.206Z,6.23
2023-03-20T23:54:22.990Z,8.77
2023-03-20T23:59:25.852Z,8.33
